Time;durP1;ratioP1;P1;durP2;ratioP2;P2;SDS_P1;SDS_P2;PMS_P1;PMS_P2;Temp;Humidity;BMP_temperature;BMP_pressure;BME280_temperature;BME280_humidity;BME280_pressure;Samples;Min_cycle;Max_cycle;Signal;HPM_P1;HPM_P2
2022/05/25 00:00:13;;;;;;;6.65;4.45;;;15.20;99.90;;;;;;5268419;28;20509;-80
2022/05/25 00:02:45;;;;;;;6.88;4.55;;;15.20;99.90;;;;;;5267355;28;20027;-78
2022/05/25 00:05:16;;;;;;;4.13;3.72;;;15.30;99.90;;;;;;5268715;28;20490;-78
2022/05/25 00:07:47;;;;;;;6.25;4.60;;;15.00;99.90;;;;;;5267446;28;20069;-79
2022/05/25 00:10:18;;;;;;;8.65;5.35;;;14.80;99.90;;;;;;5267410;28;20016;-79
2022/05/25 00:12:49;;;;;;;10.48;4.25;;;14.60;99.90;;;;;;5268769;28;20102;-78
2022/05/25 00:15:20;;;;;;;9.38;5.45;;;14.80;99.90;;;;;;5268682;28;20387;-82
2022/05/25 00:17:51;;;;;;;7.07;4.53;;;15.10;99.90;;;;;;5270704;28;20023;-79
2022/05/25 00:20:22;;;;;;;9.43;5.63;;;15.20;99.90;;;;;;5272486;28;20073;-85
2022/05/25 00:22:55;;;;;;;7.22;4.78;;;15.20;99.90;;;;;;5272495;28;20039;-83
2022/05/25 00:25:33;;;;;;;9.20;6.43;;;14.90;99.90;;;;;;5271173;28;20372;-85
2022/05/25 00:28:06;;;;;;;9.98;5.80;;;14.90;99.90;;;;;;5272412;28;20028;-78
2022/05/25 00:30:39;;;;;;;7.00;5.57;;;14.70;99.90;;;;;;5272313;28;20511;-79
2022/05/25 00:33:11;;;;;;;9.20;6.03;;;15.00;99.90;;;;;;5271034;28;20034;-79
2022/05/25 00:35:42;;;;;;;12.85;7.38;;;15.10;99.90;;;;;;5272254;28;20028;-85
2022/05/25 00:38:13;;;;;;;13.75;7.80;;;15.10;99.90;;;;;;5272250;28;20031;-85
2022/05/25 00:40:45;;;;;;;10.88;8.13;;;15.20;99.90;;;;;;5272243;28;20043;-79
2022/05/25 00:43:16;;;;;;;14.15;7.72;;;15.00;99.90;;;;;;5271834;28;20028;-85
2022/05/25 00:45:50;;;;;;;10.60;7.00;;;15.10;99.90;;;;;;5272327;28;20101;-84
2022/05/25 00:48:31;;;;;;;9.48;6.65;;;15.00;99.90;;;;;;5272104;28;20388;-79
2022/05/25 00:51:15;;;;;;;12.02;6.47;;;14.70;99.90;;;;;;5270732;28;20016;-79
2022/05/25 00:53:53;;;;;;;10.23;6.50;;;14.90;99.90;;;;;;5271760;28;20028;-79
2022/05/25 00:56:26;;;;;;;10.32;6.60;;;14.80;99.90;;;;;;5271860;28;20468;-84
2022/05/25 00:59:07;;;;;;;15.15;7.95;;;15.00;99.90;;;;;;5271683;28;20032;-79
2022/05/25 01:01:38;;;;;;;12.88;8.02;;;14.90;99.90;;;;;;5271829;28;20054;-79
2022/05/25 01:04:11;;;;;;;10.35;8.18;;;14.80;99.90;;;;;;5271729;28;20125;-78
2022/05/25 01:07:12;;;;;;;13.50;9.20;;;14.80;99.90;;;;;;5271644;28;20025;-84
2022/05/25 01:10:03;;;;;;;11.73;9.02;;;14.50;99.90;;;;;;5271582;28;20020;-85
2022/05/25 01:12:53;;;;;;;13.65;10.23;;;14.60;99.90;;;;;;5271606;28;20032;-79
2022/05/25 01:15:52;;;;;;;10.87;8.77;;;14.60;99.90;;;;;;5270104;28;20395;-84
2022/05/25 01:18:29;;;;;;;9.68;7.30;;;14.70;99.90;;;;;;5271433;28;20073;-78
2022/05/25 01:21:12;;;;;;;11.73;8.20;;;14.80;99.90;;;;;;5271458;28;20052;-79
2022/05/25 01:23:52;;;;;;;14.65;9.13;;;14.70;99.90;;;;;;5271443;28;20027;-78
2022/05/25 01:26:55;;;;;;;10.70;7.93;;;14.60;99.90;;;;;;5271315;28;20384;-79
2022/05/25 01:29:48;;;;;;;9.77;8.02;;;14.70;99.90;;;;;;5270975;28;20048;-78
2022/05/25 01:32:46;;;;;;;9.73;7.85;;;14.40;99.90;;;;;;5271276;28;20126;-78
2022/05/25 01:35:37;;;;;;;9.70;7.72;;;14.50;99.90;;;;;;5271390;28;20036;-79
2022/05/25 01:38:14;;;;;;;9.55;6.90;;;14.30;99.90;;;;;;5269425;28;20491;-79
2022/05/25 01:40:51;;;;;;;10.50;8.00;;;14.40;99.90;;;;;;5271035;28;20013;-79
2022/05/25 01:43:27;;;;;;;11.95;8.25;;;14.40;99.90;;;;;;5270930;28;20069;-79
2022/05/25 01:46:27;;;;;;;11.73;7.65;;;14.30;99.90;;;;;;5269639;28;20067;-79
2022/05/25 01:49:04;;;;;;;13.15;9.27;;;14.30;99.90;;;;;;5261612;28;20028;-78
2022/05/25 01:51:42;;;;;;;10.48;8.48;;;13.90;99.90;;;;;;5269488;28;20035;-78
2022/05/25 01:54:17;;;;;;;9.90;7.93;;;14.10;99.90;;;;;;5270798;28;20032;-78
2022/05/25 01:56:51;;;;;;;8.73;7.82;;;14.20;99.90;;;;;;5270628;28;20103;-85
2022/05/25 01:59:22;;;;;;;8.73;6.95;;;14.20;99.90;;;;;;5270693;28;20039;-84
2022/05/25 02:04:50;;;;;;;9.55;7.75;;;14.40;99.90;;;;;;5270770;28;20039;-84
2022/05/25 02:07:48;;;;;;;9.63;7.95;;;14.30;99.90;;;;;;5269484;28;20034;-78
2022/05/25 02:10:50;;;;;;;10.40;7.97;;;14.30;99.90;;;;;;5270583;28;20035;-78
2022/05/25 02:13:39;;;;;;;9.75;6.05;;;14.20;99.90;;;;;;5270226;28;20020;-78
2022/05/25 02:16:19;;;;;;;12.15;6.40;;;14.40;99.90;;;;;;5269012;28;20038;-79
2022/05/25 02:19:17;;;;;;;8.95;6.47;;;14.20;99.90;;;;;;5270474;28;20065;-78
2022/05/25 02:22:07;;;;;;;8.75;6.82;;;14.30;99.90;;;;;;5270680;28;20387;-78
2022/05/25 02:24:47;;;;;;;10.40;6.63;;;14.50;99.90;;;;;;5270077;28;20028;-79
2022/05/25 02:27:35;;;;;;;11.48;6.80;;;14.50;99.90;;;;;;5268769;28;20025;-86
2022/05/25 02:30:13;;;;;;;9.15;6.97;;;14.10;99.90;;;;;;5269897;28;20052;-78
2022/05/25 02:32:49;;;;;;;7.90;6.50;;;14.40;99.90;;;;;;5268800;28;20067;-78
2022/05/25 02:35:23;;;;;;;11.00;7.30;;;14.30;99.90;;;;;;5269821;28;20047;-85
2022/05/25 02:38:02;;;;;;;7.53;6.32;;;14.00;99.90;;;;;;5269901;28;20098;-79
2022/05/25 02:40:35;;;;;;;10.80;8.02;;;14.20;99.90;;;;;;5268039;28;20034;-78
2022/05/25 02:43:07;;;;;;;9.43;7.10;;;13.90;99.90;;;;;;5268177;28;20541;-85
2022/05/25 02:45:38;;;;;;;10.98;7.93;;;14.10;99.90;;;;;;5269719;28;20035;-86
2022/05/25 02:48:09;;;;;;;12.52;7.15;;;13.90;99.90;;;;;;5269597;28;20020;-78
2022/05/25 02:50:40;;;;;;;9.15;7.13;;;13.90;99.90;;;;;;5269640;28;20464;-83
2022/05/25 02:53:11;;;;;;;10.43;7.35;;;14.10;99.90;;;;;;5268375;28;20035;-86
2022/05/25 02:55:42;;;;;;;11.38;6.70;;;14.10;99.90;;;;;;5269369;28;20051;-78
2022/05/25 02:58:13;;;;;;;9.73;6.97;;;14.10;99.90;;;;;;5269602;28;20103;-78
2022/05/25 03:00:44;;;;;;;8.02;6.28;;;14.10;99.90;;;;;;5269466;28;20107;-78
2022/05/25 03:03:15;;;;;;;8.02;6.45;;;14.20;99.90;;;;;;5268119;28;20024;-78
2022/05/25 03:05:46;;;;;;;8.25;6.53;;;14.00;99.90;;;;;;5269486;28;20046;-78
2022/05/25 03:08:17;;;;;;;10.80;6.25;;;14.10;99.90;;;;;;5269474;28;20028;-79
2022/05/25 03:10:48;;;;;;;9.25;6.88;;;14.20;99.90;;;;;;5269515;28;20026;-78
2022/05/25 03:13:19;;;;;;;9.30;6.75;;;14.00;99.90;;;;;;5269234;28;20099;-78
2022/05/25 03:15:50;;;;;;;7.68;6.53;;;13.90;99.90;;;;;;5268101;28;20032;-78
2022/05/25 03:18:21;;;;;;;8.93;6.25;;;14.00;99.90;;;;;;5269082;28;20056;-79
2022/05/25 03:20:52;;;;;;;11.73;7.03;;;13.90;99.90;;;;;;5269204;28;20048;-81
2022/05/25 03:23:22;;;;;;;8.95;7.00;;;14.00;99.90;;;;;;5269184;28;20050;-78
2022/05/25 03:25:53;;;;;;;7.32;6.25;;;14.10;99.90;;;;;;5269227;28;20068;-84
2022/05/25 03:28:24;;;;;;;6.75;6.05;;;14.10;99.90;;;;;;5269063;28;20028;-80
2022/05/25 03:30:55;;;;;;;7.55;5.50;;;14.20;99.90;;;;;;5268955;28;20563;-79
2022/05/25 03:33:26;;;;;;;9.73;6.45;;;14.20;99.90;;;;;;5269202;28;20032;-79
2022/05/25 03:35:57;;;;;;;7.18;6.43;;;14.30;99.90;;;;;;5269069;28;20027;-83
2022/05/25 03:38:28;;;;;;;8.85;6.72;;;14.40;99.90;;;;;;5269007;28;20016;-80
2022/05/25 03:41:00;;;;;;;8.80;7.20;;;14.50;99.90;;;;;;5269025;28;20092;-81
2022/05/25 03:43:34;;;;;;;11.85;7.35;;;14.60;99.90;;;;;;5269087;28;20032;-85
2022/05/25 03:46:06;;;;;;;7.75;6.93;;;14.60;99.90;;;;;;5268868;28;20025;-79
2022/05/25 03:48:36;;;;;;;9.73;7.30;;;14.70;99.90;;;;;;5268960;28;20027;-85
2022/05/25 03:51:07;;;;;;;10.73;7.15;;;14.70;99.90;;;;;;5269056;28;20387;-79
2022/05/25 03:53:38;;;;;;;13.45;8.05;;;14.90;99.90;;;;;;5272308;28;20052;-79
2022/05/25 03:56:09;;;;;;;8.63;7.38;;;14.90;99.90;;;;;;5273090;28;20036;-79
2022/05/25 03:58:40;;;;;;;10.75;8.70;;;15.10;99.90;;;;;;5271515;28;20471;-85
2022/05/25 04:01:11;;;;;;;11.40;8.07;;;15.10;99.90;;;;;;5271698;28;20047;-78
2022/05/25 04:03:42;;;;;;;9.40;8.23;;;15.20;99.90;;;;;;5272893;28;20414;-78
2022/05/25 04:06:12;;;;;;;8.25;7.45;;;15.10;99.90;;;;;;5272775;28;20024;-86
2022/05/25 04:08:43;;;;;;;11.63;9.43;;;15.20;99.90;;;;;;5272896;28;20028;-85
2022/05/25 04:11:14;;;;;;;9.52;7.65;;;15.10;99.90;;;;;;5272767;28;20612;-85
2022/05/25 04:13:45;;;;;;;12.02;7.75;;;15.10;99.90;;;;;;5272638;28;20028;-79
2022/05/25 04:16:16;;;;;;;8.50;7.57;;;15.20;99.90;;;;;;5271246;28;20024;-84
2022/05/25 04:18:46;;;;;;;14.07;9.30;;;15.40;99.90;;;;;;5271330;28;20368;-79
2022/05/25 04:21:17;;;;;;;10.90;8.40;;;15.30;99.90;;;;;;5271248;28;20073;-79
2022/05/25 04:23:48;;;;;;;11.05;7.72;;;15.40;99.90;;;;;;5272475;28;20030;-81
2022/05/25 04:26:19;;;;;;;10.93;6.80;;;15.40;99.90;;;;;;5271049;28;20016;-85
2022/05/25 04:28:50;;;;;;;8.40;6.72;;;15.50;99.90;;;;;;5270959;28;20052;-79
2022/05/25 04:31:21;;;;;;;12.45;7.32;;;15.80;99.90;;;;;;5272426;28;20071;-85
2022/05/25 04:33:52;;;;;;;8.73;7.28;;;15.90;99.90;;;;;;5272308;28;20077;-79
2022/05/25 04:36:23;;;;;;;9.45;7.43;;;16.00;99.90;;;;;;5272352;28;20032;-79
2022/05/25 04:38:54;;;;;;;12.70;8.13;;;16.00;99.90;;;;;;5272269;28;20115;-85
2022/05/25 04:41:25;;;;;;;12.23;8.02;;;16.10;99.90;;;;;;5272295;28;20123;-85
2022/05/25 04:43:55;;;;;;;12.35;8.50;;;16.30;99.90;;;;;;5271899;28;20054;-86
2022/05/25 04:46:28;;;;;;;12.48;7.88;;;16.30;99.90;;;;;;5271889;28;20027;-86
2022/05/25 04:49:00;;;;;;;11.35;9.05;;;16.50;99.90;;;;;;5272192;28;20541;-85
2022/05/25 04:51:31;;;;;;;14.60;8.05;;;16.60;99.90;;;;;;5271892;28;20062;-84
2022/05/25 04:54:02;;;;;;;12.00;8.13;;;16.60;99.90;;;;;;5272147;28;20333;-85
2022/05/25 04:59:22;;;;;;;10.57;5.97;;;16.80;99.90;;;;;;5271944;28;20068;-86
2022/05/25 05:01:52;;;;;;;10.05;6.28;;;17.00;99.90;;;;;;5271934;28;20056;-85
2022/05/25 05:04:26;;;;;;;9.23;6.50;;;17.00;99.90;;;;;;5269955;28;20024;-86
2022/05/25 05:06:56;;;;;;;9.68;6.10;;;17.10;99.90;;;;;;5271524;28;20020;-78
2022/05/25 05:09:33;;;;;;;11.30;6.40;;;17.00;99.90;;;;;;5271604;28;20383;-79
2022/05/25 05:12:04;;;;;;;9.65;6.22;;;17.10;99.90;;;;;;5271643;28;20114;-79
2022/05/25 05:14:37;;;;;;;8.18;6.20;;;17.30;99.90;;;;;;5269896;28;20480;-78
2022/05/25 05:17:08;;;;;;;7.85;6.00;;;17.20;99.90;;;;;;5271609;28;20028;-78
2022/05/25 05:19:38;;;;;;;7.75;6.40;;;17.20;99.90;;;;;;5271853;28;20077;-84
2022/05/25 05:22:09;;;;;;;6.57;5.78;;;17.30;99.90;;;;;;5271282;28;20140;-79
2022/05/25 05:24:40;;;;;;;10.52;6.70;;;17.50;99.90;;;;;;5271159;28;20063;-86
2022/05/25 05:27:11;;;;;;;9.10;5.82;;;17.40;99.90;;;;;;5271261;28;20460;-78
2022/05/25 05:29:42;;;;;;;8.20;6.05;;;17.50;99.90;;;;;;5270901;28;20040;-79
2022/05/25 05:32:13;;;;;;;8.65;4.57;;;17.50;99.90;;;;;;5269299;28;20028;-78
2022/05/25 05:34:44;;;;;;;10.80;4.30;;;17.50;99.90;;;;;;5270995;28;20115;-79
2022/05/25 05:37:21;;;;;;;6.22;4.32;;;17.60;99.90;;;;;;5269550;28;20448;-79
2022/05/25 05:39:55;;;;;;;7.63;5.20;;;17.80;99.90;;;;;;5271002;28;20418;-86
2022/05/25 05:42:26;;;;;;;10.15;4.90;;;17.80;99.90;;;;;;5270858;28;20024;-79
2022/05/25 05:45:10;;;;;;;6.38;4.53;;;17.90;99.90;;;;;;5270689;28;20076;-79
2022/05/25 05:47:44;;;;;;;8.63;3.97;;;17.90;99.90;;;;;;5270884;28;20031;-78
2022/05/25 05:50:17;;;;;;;6.43;4.00;;;17.90;99.90;;;;;;5270748;28;20028;-78
2022/05/25 05:52:49;;;;;;;8.05;3.70;;;17.80;99.90;;;;;;5270644;28;20024;-86
2022/05/25 05:55:21;;;;;;;4.93;3.42;;;17.70;99.90;;;;;;5270472;28;20043;-82
2022/05/25 05:57:52;;;;;;;8.20;3.58;;;17.80;99.90;;;;;;5270517;28;20028;-81
2022/05/25 06:00:23;;;;;;;10.82;4.40;;;17.70;99.90;;;;;;5270605;28;20408;-86
2022/05/25 06:02:53;;;;;;;4.88;4.18;;;18.00;99.90;;;;;;5270474;28;20025;-85
2022/05/25 06:05:25;;;;;;;6.53;4.72;;;18.10;99.90;;;;;;5270819;28;20161;-78
2022/05/25 06:07:56;;;;;;;6.93;4.00;;;18.10;99.90;;;;;;5270192;28;20102;-79
2022/05/25 06:10:27;;;;;;;8.50;3.92;;;18.30;99.90;;;;;;5270721;28;20408;-79
2022/05/25 06:12:57;;;;;;;8.68;3.92;;;18.40;99.90;;;;;;5270262;28;20161;-78
2022/05/25 06:21:08;;;;;;;7.13;4.25;;;18.60;99.90;;;;;;5270038;28;20036;-78
2022/05/25 06:23:39;;;;;;;7.63;3.97;;;18.80;99.90;;;;;;5269584;28;20012;-79
2022/05/25 06:26:09;;;;;;;5.72;3.83;;;18.50;99.90;;;;;;5269529;28;20384;-79
2022/05/25 06:28:40;;;;;;;6.13;3.47;;;18.70;99.90;;;;;;5269328;28;20024;-84
2022/05/25 06:31:12;;;;;;;9.23;3.55;;;19.00;99.90;;;;;;5268723;28;20048;-78
2022/05/25 06:33:43;;;;;;;5.35;3.13;;;18.70;99.90;;;;;;5269396;28;20024;-79
2022/05/25 06:36:22;;;;;;;8.15;3.30;;;18.60;99.90;;;;;;5269420;28;20157;-78
2022/05/25 06:38:55;;;;;;;8.00;4.32;;;18.90;99.90;;;;;;5269564;28;20016;-80
2022/05/25 06:41:28;;;;;;;10.57;4.20;;;18.80;99.90;;;;;;5269314;28;20028;-78
2022/05/25 06:44:00;;;;;;;8.63;4.00;;;19.30;99.90;;;;;;5269199;28;20395;-78
2022/05/25 06:46:31;;;;;;;4.70;2.83;;;19.40;99.90;;;;;;5268055;28;20032;-84
2022/05/25 06:49:02;;;;;;;6.93;2.88;;;19.50;99.90;;;;;;5269394;28;20016;-79
2022/05/25 06:51:35;;;;;;;8.48;2.83;;;19.30;99.90;;;;;;5260103;28;20017;-84
2022/05/25 06:54:06;;;;;;;10.63;4.40;;;19.20;99.90;;;;;;5252600;28;20047;-79
2022/05/25 06:56:36;;;;;;;4.53;2.83;;;19.70;99.90;;;;;;5248668;28;20024;-86
2022/05/25 06:59:07;;;;;;;4.80;2.45;;;20.10;99.90;;;;;;5248505;28;20032;-79
2022/05/25 07:01:40;;;;;;;5.45;2.80;;;20.10;99.90;;;;;;5248440;28;20037;-79
2022/05/25 07:04:11;;;;;;;7.13;2.53;;;20.50;99.90;;;;;;5248605;28;20020;-79
2022/05/25 07:06:42;;;;;;;9.52;3.45;;;20.60;99.90;;;;;;5248646;28;20108;-86
2022/05/25 07:09:13;;;;;;;8.55;4.35;;;20.10;99.90;;;;;;5248611;28;20103;-85
2022/05/25 07:11:43;;;;;;;5.70;3.60;;;20.10;99.90;;;;;;5248560;28;20020;-79
2022/05/25 07:14:14;;;;;;;11.40;5.05;;;20.30;99.90;;;;;;5248496;28;20028;-81
2022/05/25 07:16:45;;;;;;;7.15;4.35;;;20.30;99.90;;;;;;5248505;28;20025;-78
2022/05/25 07:19:16;;;;;;;7.53;4.10;;;19.90;99.90;;;;;;5248459;28;20025;-79
2022/05/25 07:21:48;;;;;;;10.38;4.10;;;20.10;99.90;;;;;;5248483;28;20020;-82
2022/05/25 07:24:19;;;;;;;5.35;3.88;;;20.10;99.90;;;;;;5265663;28;20464;-78
2022/05/25 07:26:50;;;;;;;8.32;4.18;;;20.60;99.90;;;;;;5272967;28;20020;-78
2022/05/25 07:29:21;;;;;;;7.90;3.63;;;20.80;99.90;;;;;;5275864;28;20101;-78
2022/05/25 07:31:58;;;;;;;6.20;3.10;;;20.50;99.90;;;;;;5276293;28;20028;-78
2022/05/25 07:34:33;;;;;;;9.93;3.13;;;20.70;99.90;;;;;;5276079;28;20032;-77
2022/05/25 07:37:11;;;;;;;5.00;3.17;;;20.90;99.90;;;;;;5276014;28;20070;-78
2022/05/25 07:40:05;;;;;;;7.40;2.97;;;21.10;99.90;;;;;;5276114;28;20031;-77
2022/05/25 07:42:38;;;;;;;7.10;3.67;;;20.80;99.90;;;;;;5269619;28;20476;-77
2022/05/25 07:45:09;;;;;;;8.07;3.28;;;20.80;99.90;;;;;;5275815;28;20039;-77
2022/05/25 07:47:39;;;;;;;7.68;3.10;;;21.10;99.90;;;;;;5276278;28;20436;-77
2022/05/25 07:50:10;;;;;;;7.55;2.90;;;21.20;99.90;;;;;;5275839;28;20115;-77
2022/05/25 07:52:41;;;;;;;5.13;2.78;;;21.10;99.90;;;;;;5275866;28;20369;-77
2022/05/25 07:55:12;;;;;;;10.07;3.50;;;21.10;99.90;;;;;;5275823;28;20043;-77
2022/05/25 07:57:43;;;;;;;6.07;2.92;;;21.30;99.90;;;;;;5275819;28;20024;-78
2022/05/25 08:00:15;;;;;;;6.72;2.95;;;21.10;99.90;;;;;;5276138;28;20039;-77
2022/05/25 08:05:44;;;;;;;6.75;2.58;;;21.20;99.90;;;;;;5276003;28;20119;-77
2022/05/25 08:08:20;;;;;;;5.93;2.80;;;21.30;99.90;;;;;;5275801;28;20020;-77
2022/05/25 08:10:57;;;;;;;8.35;2.50;;;21.50;99.90;;;;;;5275899;28;20024;-78
2022/05/25 08:13:30;;;;;;;6.28;3.20;;;21.30;99.90;;;;;;5274826;28;20020;-87
2022/05/25 08:16:02;;;;;;;8.48;3.30;;;21.20;99.90;;;;;;5275462;28;20032;-77
2022/05/25 08:18:32;;;;;;;4.68;2.63;;;21.20;99.90;;;;;;5275937;28;20101;-77
2022/05/25 08:21:05;;;;;;;4.32;2.45;;;21.40;99.90;;;;;;5275433;28;20106;-78
2022/05/25 08:23:36;;;;;;;5.28;2.47;;;21.40;99.90;;;;;;5275450;28;20028;-82
2022/05/25 08:26:06;;;;;;;6.43;3.15;;;22.00;99.90;;;;;;5275823;28;20503;-77
2022/05/25 08:28:37;;;;;;;11.10;3.17;;;22.20;99.90;;;;;;5275638;28;20105;-77
2022/05/25 08:31:08;;;;;;;4.47;2.63;;;21.90;99.90;;;;;;5275196;28;20499;-76
2022/05/25 08:33:39;;;;;;;4.55;2.60;;;21.80;99.90;;;;;;5275420;28;20036;-77
2022/05/25 08:36:10;;;;;;;6.95;2.50;;;22.20;99.90;;;;;;5275701;28;20031;-77
2022/05/25 08:38:41;;;;;;;6.28;2.75;;;22.10;99.90;;;;;;5272633;28;20167;-77
2022/05/25 08:41:13;;;;;;;7.32;3.20;;;22.20;99.90;;;;;;5272148;28;20107;-76
2022/05/25 08:43:47;;;;;;;3.22;1.73;;;22.00;99.90;;;;;;5272087;28;20054;-77
2022/05/25 08:46:21;;;;;;;6.65;2.20;;;21.80;99.90;;;;;;5272096;28;20020;-77
2022/05/25 08:48:52;;;;;;;8.60;2.63;;;22.50;99.90;;;;;;5272252;28;20484;-86
2022/05/25 08:51:25;;;;;;;6.53;2.22;;;22.30;99.90;;;;;;5272128;28;20468;-77
2022/05/25 08:54:00;;;;;;;5.65;2.15;;;22.40;99.90;;;;;;5271781;28;20446;-77
2022/05/25 08:56:43;;;;;;;3.47;1.90;;;22.80;99.90;;;;;;5271745;28;20028;-77
2022/05/25 08:59:25;;;;;;;4.28;2.13;;;22.70;99.90;;;;;;5271664;28;20606;-77
2022/05/25 09:02:01;;;;;;;4.47;2.20;;;23.00;99.90;;;;;;5271829;28;20028;-76
2022/05/25 09:04:45;;;;;;;6.05;2.80;;;22.50;99.90;;;;;;5271687;28;20094;-77
2022/05/25 09:07:40;;;;;;;6.70;2.22;;;22.40;99.90;;;;;;5271607;28;20456;-77
2022/05/25 09:10:12;;;;;;;5.93;2.28;;;22.60;99.90;;;;;;5271608;28;20028;-77
2022/05/25 09:13:18;;;;;;;8.20;2.08;;;22.90;99.90;;;;;;5287416;28;20024;-77
2022/05/25 09:19:06;;;;;;;6.85;2.55;;;22.70;99.90;;;;;;5271398;28;20030;-77
2022/05/25 09:21:45;;;;;;;4.40;2.10;;;23.10;99.90;;;;;;5271047;28;20028;-77
2022/05/25 09:24:20;;;;;;;5.57;1.63;;;22.80;99.90;;;;;;5270429;28;20028;-78
2022/05/25 09:26:52;;;;;;;6.63;2.05;;;23.20;99.90;;;;;;5270648;28;20036;-77
2022/05/25 09:29:24;;;;;;;7.35;2.17;;;23.40;99.90;;;;;;5270495;28;20105;-82
2022/05/25 09:32:16;;;;;;;2.88;1.55;;;23.30;99.90;;;;;;5270845;28;20507;-78
2022/05/25 09:35:11;;;;;;;3.30;1.58;;;22.80;99.90;;;;;;5270697;28;20376;-77
2022/05/25 09:37:49;;;;;;;3.28;1.65;;;22.90;99.90;;;;;;5270723;28;20040;-77
2022/05/25 09:40:32;;;;;;;5.55;2.60;;;22.60;99.90;;;;;;5270688;28;20339;-77
2022/05/25 09:43:06;;;;;;;6.63;2.65;;;22.90;99.90;;;;;;5270482;28;20024;-77
2022/05/25 09:45:45;;;;;;;2.63;1.65;;;23.20;99.90;;;;;;5270453;28;20032;-77
2022/05/25 09:48:19;;;;;;;;;;;22.90;99.90;;;;;;5270885;28;20036;-81
2022/05/25 09:50:54;;;;;;;2.83;1.90;;;22.70;99.90;;;;;;5269195;28;20374;-77
2022/05/25 09:53:41;;;;;;;4.35;2.00;;;22.70;99.90;;;;;;5270360;28;20552;-78
2022/05/25 09:56:42;;;;;;;7.97;2.28;;;23.10;99.90;;;;;;5270264;28;20384;-80
2022/05/25 09:59:32;;;;;;;4.50;1.90;;;23.40;99.90;;;;;;5263116;28;20032;-77
2022/05/25 10:02:24;;;;;;;7.25;2.05;;;23.40;99.90;;;;;;5252525;28;20488;-75
2022/05/25 10:05:05;;;;;;;5.82;1.90;;;23.50;99.90;;;;;;5256869;28;20032;-79
2022/05/25 10:07:38;;;;;;;2.88;1.40;;;22.50;99.90;;;;;;5255277;28;20059;-80
2022/05/25 10:10:12;;;;;;;2.83;1.58;;;22.90;99.90;;;;;;5254709;28;20026;-78
2022/05/25 10:12:45;;;;;;;3.67;1.73;;;23.30;99.90;;;;;;5249388;28;20032;-78
2022/05/25 10:15:29;;;;;;;4.72;2.30;;;23.10;99.90;;;;;;5249236;28;20480;-77
2022/05/25 10:18:01;;;;;;;5.53;2.10;;;22.70;99.90;;;;;;5249328;28;20025;-77
2022/05/25 10:20:58;;;;;;;5.97;2.00;;;22.80;99.90;;;;;;5249270;28;20074;-78
2022/05/25 10:23:29;;;;;;;4.03;1.58;;;23.60;99.90;;;;;;5247840;28;20033;-78
2022/05/25 10:26:19;;;;;;;3.70;1.52;;;23.40;99.90;;;;;;5248939;28;20039;-78
2022/05/25 10:29:07;;;;;;;2.40;1.42;;;23.40;99.90;;;;;;5247331;28;20039;-78
2022/05/25 10:37:40;;;;;;;3.65;1.35;;;23.70;99.90;;;;;;5248807;28;20464;-79
2022/05/25 10:40:10;;;;;;;4.15;1.55;;;23.40;99.90;;;;;;5248400;28;20054;-78
2022/05/25 10:42:46;;;;;;;4.70;1.00;;;23.80;99.90;;;;;;5247822;28;20115;-79
2022/05/25 10:45:24;;;;;;;3.85;1.40;;;23.90;99.90;;;;;;5248302;28;20027;-78
2022/05/25 10:48:07;;;;;;;4.55;1.17;;;23.30;99.90;;;;;;5248405;28;20051;-76
2022/05/25 10:50:56;;;;;;;3.13;1.35;;;23.80;99.90;;;;;;5248317;28;20032;-76
2022/05/25 10:53:43;;;;;;;4.25;1.58;;;23.80;99.90;;;;;;5248265;28;20020;-76
2022/05/25 10:56:38;;;;;;;4.20;1.20;;;23.90;99.90;;;;;;5248243;28;20037;-75
2022/05/25 10:59:34;;;;;;;2.33;1.27;;;24.50;99.90;;;;;;5248080;28;20430;-76
2022/05/25 11:02:23;;;;;;;2.30;1.10;;;24.40;99.90;;;;;;5248015;28;20035;-76
2022/05/25 11:05:23;;;;;;;2.22;0.90;;;23.60;99.90;;;;;;5248178;28;20036;-75
2022/05/25 11:08:10;;;;;;;3.58;1.20;;;23.30;99.90;;;;;;5248215;28;20465;-75
2022/05/25 11:11:29;;;;;;;2.72;1.48;;;23.40;99.90;;;;;;5248045;28;20089;-79
2022/05/25 11:14:36;;;;;;;1.40;1.10;;;24.20;99.90;;;;;;5247943;28;20107;-75
2022/05/25 11:17:20;;;;;;;2.17;1.10;;;23.30;99.90;;;;;;5246503;28;20036;-75
2022/05/25 11:20:09;;;;;;;7.97;2.13;;;23.90;99.90;;;;;;5248026;28;20423;-75
2022/05/25 11:22:49;;;;;;;3.03;1.40;;;23.70;99.90;;;;;;5247921;28;20032;-78
2022/05/25 11:25:52;;;;;;;5.25;1.80;;;23.70;99.90;;;;;;5247951;28;20028;-79
2022/05/25 11:28:46;;;;;;;3.30;1.55;;;24.70;99.90;;;;;;5247752;28;20573;-79
2022/05/25 11:31:29;;;;;;;4.25;1.50;;;24.00;99.90;;;;;;5247711;28;20083;-75
2022/05/25 11:34:25;;;;;;;5.93;1.92;;;23.90;99.90;;;;;;5247749;28;20423;-75
2022/05/25 11:37:07;;;;;;;4.63;1.65;;;24.50;99.90;;;;;;5247881;28;20468;-77
2022/05/25 11:40:11;;;;;;;5.55;2.25;;;24.30;99.90;;;;;;5247771;28;20051;-75
2022/05/25 11:42:57;;;;;;;5.32;1.85;;;23.90;99.90;;;;;;5237081;28;20122;-80
2022/05/25 11:45:46;;;;;;;4.30;1.92;;;24.10;99.90;;;;;;5247685;28;20025;-75
2022/05/25 11:48:41;;;;;;;4.65;1.58;;;24.30;99.90;;;;;;5247791;28;20021;-75
2022/05/25 11:51:56;;;;;;;5.68;1.67;;;24.20;99.90;;;;;;5247593;28;20078;-75
2022/05/25 11:54:39;;;;;;;4.40;1.90;;;23.80;99.90;;;;;;5246966;28;20072;-78
2022/05/25 11:57:19;;;;;;;3.50;1.38;;;24.10;99.90;;;;;;5247607;28;20032;-77
2022/05/25 12:00:16;;;;;;;3.22;1.35;;;22.90;99.90;;;;;;5247542;28;20033;-75
2022/05/25 12:03:06;;;;;;;3.00;1.13;;;22.80;99.90;;;;;;5250125;28;20056;-77
2022/05/25 12:06:04;;;;;;;1.60;0.80;;;24.00;99.90;;;;;;5248007;28;20029;-75
2022/05/25 12:08:50;;;;;;;2.15;1.20;;;24.30;99.90;;;;;;5247894;28;20047;-75
2022/05/25 12:11:50;;;;;;;3.67;1.02;;;24.10;99.90;;;;;;5258428;28;20107;-74
2022/05/25 12:14:46;;;;;;;4.63;1.05;;;24.00;99.90;;;;;;5261803;28;20047;-74
2022/05/25 12:17:25;;;;;;;4.47;1.08;;;24.00;99.90;;;;;;5272123;28;20028;-82
2022/05/25 12:20:00;;;;;;;1.93;0.80;;;23.80;99.90;;;;;;5262134;28;20044;-77
2022/05/25 12:22:34;;;;;;;2.35;0.98;;;24.20;99.90;;;;;;5261696;28;20341;-74
2022/05/25 12:25:16;;;;;;;3.15;1.40;;;23.90;99.90;;;;;;5272320;28;20027;-75
2022/05/25 12:27:58;;;;;;;1.80;1.05;;;24.70;99.90;;;;;;5270987;28;20023;-81
2022/05/25 12:30:32;;;;;;;2.28;1.05;;;24.40;99.90;;;;;;5251188;28;20064;-76
2022/05/25 12:33:06;;;;;;;1.60;1.00;;;24.70;99.90;;;;;;5251175;28;20534;-77
2022/05/25 12:35:39;;;;;;;2.97;1.10;;;24.40;99.90;;;;;;5251131;28;20044;-82
2022/05/25 12:38:11;;;;;;;1.77;0.90;;;24.20;99.90;;;;;;5250991;28;20031;-74
2022/05/25 12:40:52;;;;;;;1.55;0.95;;;24.20;99.90;;;;;;5250999;28;20087;-74
2022/05/25 12:43:53;;;;;;;2.35;0.93;;;24.20;99.90;;;;;;5266409;28;20047;-81
2022/05/25 12:49:53;;;;;;;2.38;0.80;;;24.00;99.90;;;;;;5261920;28;20387;-81
2022/05/25 12:52:26;;;;;;;2.40;1.13;;;24.40;99.90;;;;;;5271894;28;20016;-81
2022/05/25 12:55:04;;;;;;;2.97;0.88;;;24.70;99.90;;;;;;5271760;28;20032;-84
2022/05/25 12:57:47;;;;;;;2.55;0.90;;;24.20;99.90;;;;;;5271718;28;20443;-76
2022/05/25 13:00:18;;;;;;;2.50;1.10;;;24.00;99.90;;;;;;5271767;28;20039;-76
2022/05/25 13:02:50;;;;;;;3.50;1.00;;;24.10;99.90;;;;;;5271581;28;20020;-76
2022/05/25 13:05:46;;;;;;;2.47;0.77;;;23.80;99.90;;;;;;5271702;28;20032;-79
2022/05/25 13:08:55;;;;;;;3.85;1.05;;;24.00;99.90;;;;;;5251339;28;20411;-84
2022/05/25 13:11:48;;;;;;;2.35;0.90;;;23.70;99.90;;;;;;5227757;28;20087;-80
2022/05/25 13:14:22;;;;;;;2.80;1.08;;;23.60;99.90;;;;;;5227428;28;20041;-77
2022/05/25 13:16:56;;;;;;;4.13;1.08;;;23.70;99.90;;;;;;5243905;28;20431;-79
2022/05/25 13:22:07;;;;;;;4.50;0.98;;;24.00;99.90;;;;;;5250377;28;20063;-82
2022/05/25 13:24:59;;;;;;;2.65;1.10;;;24.00;99.90;;;;;;5250013;28;20028;-83
2022/05/25 13:28:09;;;;;;;3.22;1.00;;;24.30;99.90;;;;;;5250297;28;20078;-86
2022/05/25 13:30:40;;;;;;;3.25;1.15;;;23.80;99.90;;;;;;5249866;28;20438;-84
2022/05/25 13:33:20;;;;;;;4.60;0.98;;;23.90;99.90;;;;;;5249383;28;20032;-83
2022/05/25 13:36:19;;;;;;;3.20;1.02;;;23.80;99.90;;;;;;5249717;28;20051;-82
2022/05/25 13:38:56;;;;;;;3.83;1.00;;;24.30;99.90;;;;;;5249632;28;20024;-82
2022/05/25 13:41:33;;;;;;;3.05;0.98;;;23.80;99.90;;;;;;5249862;28;20029;-85
2022/05/25 13:44:15;;;;;;;1.88;1.10;;;23.80;99.90;;;;;;5249590;28;20028;-75
2022/05/25 13:46:50;;;;;;;5.05;1.20;;;23.00;99.90;;;;;;5249686;28;20028;-82
2022/05/25 13:49:22;;;;;;;2.45;1.00;;;23.60;99.90;;;;;;5249840;28;20025;-84
2022/05/25 13:52:19;;;;;;;3.53;1.10;;;24.00;99.90;;;;;;5249661;28;20572;-75
2022/05/25 13:55:02;;;;;;;3.83;1.30;;;23.60;99.90;;;;;;5249524;28;20032;-80
2022/05/25 13:57:39;;;;;;;3.83;1.00;;;23.70;99.90;;;;;;5249584;28;20056;-75
2022/05/25 14:00:33;;;;;;;2.67;1.33;;;23.00;99.90;;;;;;5249780;28;20040;-74
2022/05/25 14:03:12;;;;;;;2.72;1.20;;;23.50;99.90;;;;;;5249432;28;20103;-84
2022/05/25 14:05:50;;;;;;;7.88;1.40;;;23.60;99.90;;;;;;5249485;28;20078;-85
2022/05/25 14:10:54;;;;;;;4.68;1.30;;;23.60;99.90;;;;;;5249329;28;20024;-79